Terminal Aerodrome Forecast
Issued by NWS Charleston, WV

Current Version | Previous Version | Text Only | Print | Product List | Glossary Off
Versions: 1 2 3 4 5 6 7 8 9 10 11 12 13 14 15 16 17 18 19 20 21 22 23

000
FTUS41 KRLX 260249 AAA
TAFPKB
TAF AMD
KPKB 260249Z 2603/2624 VRB02KT P6SM SKC
     FM261600 20008KT P6SM SHRA VCTS BKN050CB
     FM261800 23010G17KT 4SM SHRA VCTS BKN030CB
     FM262200 24009G15KT P6SM SHRA VCTS BKN035CB=

USA.gov is the U.S. government's official web portal to all federal, state and local government web resources and services.